createdAt,value
2022-07-28T00:00:26.879Z,98349.31
2022-07-28T00:03:13.214Z,98298.88
2022-07-28T00:05:59.623Z,98321.09
2022-07-28T00:08:45.173Z,98323.81
2022-07-28T00:11:30.663Z,98337.72
2022-07-28T00:14:17.939Z,98308.84
2022-07-28T00:17:04.425Z,98327.75
2022-07-28T00:19:50.838Z,98292.25
2022-07-28T00:22:44.846Z,98310.13
2022-07-28T00:25:31.002Z,98302.03
2022-07-28T00:28:16.549Z,98304.72
2022-07-28T00:31:06.458Z,98303.06
2022-07-28T00:33:58.085Z,98165.06
2022-07-28T00:36:43.565Z,98240.63
2022-07-28T00:39:29.444Z,98293.03
2022-07-28T00:42:18.914Z,98225.41
2022-07-28T00:45:05.844Z,98309.13
2022-07-28T00:47:51.840Z,98307.06
2022-07-28T00:50:40.162Z,98266.16
2022-07-28T00:53:26.244Z,98312.72
2022-07-28T00:56:11.999Z,98320.09
2022-07-28T00:58:57.974Z,98317.41
2022-07-28T01:01:43.881Z,98172.53
2022-07-28T01:04:30.236Z,98164.00
2022-07-28T01:07:32.629Z,98323.47
2022-07-28T01:10:43.553Z,98328.56
2022-07-28T01:13:38.988Z,98331.25
2022-07-28T01:16:24.657Z,98296.34
2022-07-28T01:19:37.223Z,98327.41
2022-07-28T01:22:29.740Z,98325.00
2022-07-28T01:25:23.018Z,98277.78
2022-07-28T01:28:11.016Z,98347.69
2022-07-28T01:31:00.404Z,98201.63
2022-07-28T01:33:49.442Z,98251.72
2022-07-28T01:36:50.115Z,98192.44
2022-07-28T01:39:37.462Z,98336.81
2022-07-28T01:42:27.144Z,98197.81
2022-07-28T01:45:14.327Z,98255.31
2022-07-28T01:48:02.268Z,98187.16
2022-07-28T01:50:51.007Z,98298.09
2022-07-28T01:53:40.033Z,98296.06
2022-07-28T01:56:28.486Z,98282.75
2022-07-28T01:59:14.731Z,98284.91
2022-07-28T02:02:01.959Z,98224.78
2022-07-28T02:04:49.896Z,98209.75
2022-07-28T02:07:36.092Z,98248.69
2022-07-28T02:10:22.531Z,98341.03
2022-07-28T02:13:10.417Z,98326.84
2022-07-28T02:15:56.645Z,98329.41
2022-07-28T02:18:44.765Z,98350.09
2022-07-28T02:21:32.245Z,98345.59
2022-07-28T02:24:26.466Z,98341.97
2022-07-28T02:27:33.047Z,98348.31
2022-07-28T02:30:30.219Z,98338.94
2022-07-28T02:33:27.175Z,98315.44
2022-07-28T02:36:31.652Z,98337.59
2022-07-28T02:39:27.690Z,98312.38
2022-07-28T02:42:17.498Z,98331.16
2022-07-28T02:45:08.228Z,98340.91
2022-07-28T02:48:00.010Z,98343.13
2022-07-28T02:50:47.098Z,98362.38
2022-07-28T02:53:33.846Z,98349.38
2022-07-28T02:56:20.425Z,98344.88
2022-07-28T02:59:06.324Z,98344.63
2022-07-28T03:01:53.174Z,98346.81
2022-07-28T03:04:59.267Z,98331.50
2022-07-28T03:07:50.847Z,98211.22
2022-07-28T03:10:37.598Z,98306.50
2022-07-28T03:13:23.687Z,98332.25
2022-07-28T03:16:10.021Z,98375.69
2022-07-28T03:18:56.452Z,98367.41
2022-07-28T03:21:42.052Z,98350.78
2022-07-28T03:24:32.687Z,98245.34
2022-07-28T03:27:28.146Z,98237.19
2022-07-28T03:30:21.406Z,98357.47
2022-07-28T03:33:07.403Z,98367.28
2022-07-28T03:35:56.854Z,98395.16
2022-07-28T03:38:48.770Z,98373.31
2022-07-28T03:41:36.357Z,98391.06
2022-07-28T03:44:28.007Z,98393.41
2022-07-28T03:47:15.561Z,98391.81
2022-07-28T03:50:01.697Z,98384.31
2022-07-28T03:52:47.808Z,98402.78
2022-07-28T03:55:33.522Z,98240.03
2022-07-28T03:58:28.879Z,98332.06
2022-07-28T04:01:15.328Z,98402.97
2022-07-28T04:04:01.227Z,98403.97
2022-07-28T04:06:46.815Z,98416.94
2022-07-28T04:09:32.788Z,98410.38
2022-07-28T04:12:18.274Z,98350.28
2022-07-28T04:15:12.386Z,98409.97
2022-07-28T04:17:59.327Z,98378.19
2022-07-28T04:20:45.998Z,98414.97
2022-07-28T04:23:32.697Z,98416.56
2022-07-28T04:26:19.122Z,98365.06
2022-07-28T04:29:05.892Z,98253.63
2022-07-28T04:31:52.306Z,98413.63
2022-07-28T04:34:37.996Z,98418.50
2022-07-28T04:37:24.436Z,98428.97
2022-07-28T04:40:12.178Z,98423.34
2022-07-28T04:42:58.002Z,98424.53
2022-07-28T04:45:54.069Z,98354.06
2022-07-28T04:48:40.356Z,98322.03
2022-07-28T04:51:26.125Z,98260.41
2022-07-28T04:54:12.079Z,98381.03
2022-07-28T04:56:57.747Z,98300.38
2022-07-28T04:59:43.253Z,98452.78
2022-07-28T05:02:28.909Z,98427.00
2022-07-28T05:05:14.268Z,98416.88
2022-07-28T05:08:00.659Z,98415.13
2022-07-28T05:10:46.653Z,98427.59
2022-07-28T05:13:34.553Z,98439.53
2022-07-28T05:16:20.221Z,98435.28
2022-07-28T05:19:05.919Z,98401.53
2022-07-28T05:21:51.981Z,98414.75
2022-07-28T05:24:38.124Z,98347.47
2022-07-28T05:27:24.146Z,98264.22
2022-07-28T05:30:11.367Z,98409.59
2022-07-28T05:33:00.211Z,98417.63
2022-07-28T05:35:54.267Z,98411.44
2022-07-28T05:38:39.936Z,98351.41
2022-07-28T05:41:26.517Z,98409.97
2022-07-28T05:44:12.548Z,98232.78
2022-07-28T05:46:58.493Z,98399.38
2022-07-28T05:49:44.391Z,98402.31
2022-07-28T05:52:30.453Z,98397.03
2022-07-28T05:55:16.433Z,98336.38
2022-07-28T05:58:02.243Z,98404.34
2022-07-28T06:00:47.674Z,98262.66
2022-07-28T06:03:41.562Z,98366.84
2022-07-28T06:06:27.848Z,98384.28
2022-07-28T06:09:13.609Z,98293.94
2022-07-28T06:11:58.863Z,98421.28
2022-07-28T06:14:44.425Z,98355.69
2022-07-28T06:17:30.782Z,98291.25
2022-07-28T06:20:16.970Z,98285.31
2022-07-28T06:23:02.704Z,98430.34
2022-07-28T06:25:49.363Z,98396.03
2022-07-28T06:28:35.521Z,98418.25
2022-07-28T06:31:21.483Z,98359.59
2022-07-28T06:34:07.677Z,98335.28
2022-07-28T06:36:53.195Z,98405.97
2022-07-28T06:39:39.103Z,98419.56
2022-07-28T06:42:24.707Z,98427.53
2022-07-28T06:45:19.545Z,98419.00
2022-07-28T06:48:08.886Z,98342.06
2022-07-28T06:50:56.554Z,98398.69
2022-07-28T06:53:42.807Z,98406.28
2022-07-28T06:56:32.136Z,98426.84
2022-07-28T06:59:18.406Z,98433.69
2022-07-28T07:02:04.997Z,98427.75
2022-07-28T07:04:52.030Z,98426.63
2022-07-28T07:07:42.760Z,98407.97
2022-07-28T07:10:29.433Z,98441.53
2022-07-28T07:13:15.428Z,98343.66
2022-07-28T07:16:01.740Z,98452.13
2022-07-28T07:18:51.025Z,98450.69
2022-07-28T07:21:37.438Z,98445.75
2022-07-28T07:24:22.743Z,98452.25
2022-07-28T07:27:09.342Z,98432.84
2022-07-28T07:29:55.826Z,98479.66
2022-07-28T07:32:42.838Z,98450.13
2022-07-28T07:35:29.231Z,98454.53
2022-07-28T07:38:15.473Z,98432.06
2022-07-28T07:41:00.968Z,98435.28
2022-07-28T07:43:47.872Z,98324.31
2022-07-28T07:46:33.367Z,98409.66
2022-07-28T07:49:19.193Z,98406.91
2022-07-28T07:52:05.565Z,98449.19
2022-07-28T07:54:51.362Z,98428.00
2022-07-28T07:57:37.052Z,98452.13
2022-07-28T08:00:29.180Z,98428.38
2022-07-28T08:03:16.778Z,98430.84
2022-07-28T08:06:08.605Z,98468.69
2022-07-28T08:08:55.391Z,98442.06
2022-07-28T08:11:41.169Z,98436.63
2022-07-28T08:14:26.831Z,98470.53
2022-07-28T08:17:12.619Z,98457.03
2022-07-28T08:19:58.705Z,98463.94
2022-07-28T08:22:52.516Z,98320.66
2022-07-28T08:25:38.654Z,98453.16
2022-07-28T08:28:24.490Z,98450.88
2022-07-28T08:31:10.907Z,98356.72
2022-07-28T08:33:58.537Z,98405.63
2022-07-28T08:36:43.982Z,98440.38
2022-07-28T08:39:30.928Z,98324.31
2022-07-28T08:42:29.424Z,98453.72
2022-07-28T08:45:16.640Z,98465.91
2022-07-28T08:48:11.228Z,98449.78
2022-07-28T08:51:04.576Z,98452.97
2022-07-28T08:53:50.291Z,98448.44
2022-07-28T08:56:40.951Z,98467.91
2022-07-28T08:59:34.871Z,98362.09
2022-07-28T09:02:21.789Z,98433.69
2022-07-28T09:05:08.588Z,98465.56
2022-07-28T09:07:55.840Z,98462.94
2022-07-28T09:10:41.689Z,98456.03
2022-07-28T09:13:27.248Z,98453.97
2022-07-28T09:16:15.505Z,98431.81
2022-07-28T09:19:01.615Z,98464.94
2022-07-28T09:21:47.461Z,98380.72
2022-07-28T09:24:37.486Z,98417.31
2022-07-28T09:27:23.620Z,98459.09
2022-07-28T09:30:11.084Z,98392.63
2022-07-28T09:33:43.339Z,98370.56
2022-07-28T09:36:38.702Z,98476.50
2022-07-28T09:39:32.531Z,98473.78
2022-07-28T09:42:18.732Z,98319.06
2022-07-28T09:45:25.064Z,98340.78
2022-07-28T09:48:13.379Z,98377.41
2022-07-28T09:51:14.296Z,98469.88
2022-07-28T09:54:15.270Z,98488.38
2022-07-28T09:57:01.748Z,98432.66
2022-07-28T09:59:52.260Z,98461.41
2022-07-28T10:02:41.405Z,98441.06
2022-07-28T10:05:41.206Z,98448.28
2022-07-28T10:08:49.512Z,98474.19
2022-07-28T10:11:40.988Z,98449.84
2022-07-28T10:14:32.848Z,98463.53
2022-07-28T10:17:36.516Z,98451.63
2022-07-28T10:20:22.888Z,98409.31
2022-07-28T10:23:12.706Z,98451.91
2022-07-28T10:26:00.577Z,98384.16
2022-07-28T10:28:51.762Z,98410.19
2022-07-28T10:31:51.451Z,98444.81
2022-07-28T10:35:04.964Z,98451.94
2022-07-28T10:38:04.159Z,98436.19
2022-07-28T10:40:53.103Z,98314.59
2022-07-28T10:43:42.930Z,98383.09
2022-07-28T10:46:32.440Z,98425.22
2022-07-28T10:49:18.691Z,98306.72
2022-07-28T10:52:19.796Z,98425.00
2022-07-28T10:55:33.154Z,98444.31
2022-07-28T10:58:31.234Z,98433.59
2022-07-28T11:01:55.441Z,98389.00
2022-07-28T11:04:41.105Z,98301.91
2022-07-28T11:07:39.990Z,98424.06
2022-07-28T11:10:27.196Z,98429.53
2022-07-28T11:13:29.075Z,98420.81
2022-07-28T11:16:18.435Z,98428.78
2022-07-28T11:19:07.690Z,98396.56
2022-07-28T11:22:19.776Z,98377.84
2022-07-28T11:25:21.083Z,98319.69
2022-07-28T11:28:08.346Z,98418.44
2022-07-28T11:30:55.193Z,98421.34
2022-07-28T11:33:55.626Z,98312.69
2022-07-28T11:37:02.755Z,98439.75
2022-07-28T11:39:48.215Z,98425.38
2022-07-28T11:42:35.855Z,98399.63
2022-07-28T11:45:26.614Z,98416.78
2022-07-28T11:48:26.495Z,98415.22
2022-07-28T11:51:14.222Z,98376.25
2022-07-28T11:54:00.170Z,98383.22
2022-07-28T11:56:46.104Z,98424.88
2022-07-28T12:00:02.374Z,98426.50
2022-07-28T12:02:51.986Z,98389.38
2022-07-28T12:05:41.985Z,98417.69
2022-07-28T12:08:28.919Z,98412.91
2022-07-28T12:11:15.065Z,98394.97
2022-07-28T12:14:06.246Z,98407.84
2022-07-28T12:16:53.400Z,98270.34
2022-07-28T12:19:39.408Z,98402.63
2022-07-28T12:22:25.925Z,98390.50
2022-07-28T12:25:20.167Z,98408.56
2022-07-28T12:28:15.940Z,98358.22
2022-07-28T12:31:25.948Z,98415.66
2022-07-28T12:34:12.299Z,98360.97
2022-07-28T12:37:02.326Z,98282.44
2022-07-28T12:39:51.526Z,98282.56
2022-07-28T12:42:37.025Z,98404.19
2022-07-28T12:45:23.159Z,98390.59
2022-07-28T12:48:09.694Z,98401.25
2022-07-28T12:50:55.106Z,98258.72
2022-07-28T12:53:51.660Z,98364.91
2022-07-28T12:56:52.140Z,98384.50
2022-07-28T12:59:39.738Z,98287.19
2022-07-28T13:02:45.613Z,98409.34
2022-07-28T13:05:57.328Z,98284.22
2022-07-28T13:08:47.467Z,98357.06
2022-07-28T13:11:49.203Z,98260.63
2022-07-28T13:14:43.747Z,98399.34
2022-07-28T13:17:47.909Z,98308.91
2022-07-28T13:20:48.214Z,98393.72
2022-07-28T13:23:34.052Z,98376.78
2022-07-28T13:26:19.838Z,98385.47
2022-07-28T13:29:12.788Z,98352.50
2022-07-28T13:31:59.458Z,98379.22
2022-07-28T13:34:45.771Z,98372.75
2022-07-28T13:37:31.638Z,98369.16
2022-07-28T13:40:17.762Z,98339.69
2022-07-28T13:43:04.917Z,98406.81
2022-07-28T13:46:00.114Z,98361.19
2022-07-28T13:48:57.643Z,98372.69
2022-07-28T13:51:45.865Z,98362.75
2022-07-28T13:54:32.072Z,98379.88
2022-07-28T13:57:18.886Z,98374.19
2022-07-28T14:00:08.875Z,98379.81
2022-07-28T14:02:55.004Z,98385.31
2022-07-28T14:05:40.596Z,98371.09
2022-07-28T14:08:28.617Z,98383.13
2022-07-28T14:11:15.295Z,98346.56
2022-07-28T14:14:01.016Z,98330.59
2022-07-28T14:16:47.775Z,98335.84
2022-07-28T14:19:38.493Z,98371.72
2022-07-28T14:22:25.459Z,98352.31
2022-07-28T14:25:19.419Z,98376.94
2022-07-28T14:28:06.566Z,98243.88
2022-07-28T14:30:52.412Z,98265.53
2022-07-28T14:33:43.165Z,98370.47
2022-07-28T14:36:32.027Z,98369.75
2022-07-28T14:39:17.690Z,98277.56
2022-07-28T14:42:04.947Z,98324.34
2022-07-28T14:44:51.217Z,98298.38
2022-07-28T14:47:44.797Z,98323.47
2022-07-28T14:50:32.194Z,98368.22
2022-07-28T14:53:22.101Z,98366.56
2022-07-28T14:56:13.940Z,98376.66
2022-07-28T14:58:59.540Z,98237.16
2022-07-28T15:01:45.144Z,98323.41
2022-07-28T15:04:34.741Z,98339.13
2022-07-28T15:07:20.455Z,98365.84
2022-07-28T15:10:06.717Z,98365.13
2022-07-28T15:12:52.385Z,98228.38
2022-07-28T15:15:42.963Z,98318.94
2022-07-28T15:18:30.262Z,98365.00
2022-07-28T15:21:17.433Z,98330.22
2022-07-28T15:24:03.095Z,98366.47
2022-07-28T15:26:49.340Z,98365.06
2022-07-28T15:29:35.511Z,98237.63
2022-07-28T15:32:26.289Z,98219.66
2022-07-28T15:35:14.409Z,98338.31
2022-07-28T15:38:00.163Z,98244.03
2022-07-28T15:40:48.116Z,98274.25
2022-07-28T15:43:35.509Z,98355.47
2022-07-28T15:46:21.314Z,98346.13
2022-07-28T15:49:09.303Z,98302.69
2022-07-28T15:51:57.714Z,98221.28
2022-07-28T15:54:43.717Z,98243.25
2022-07-28T15:57:37.660Z,98369.97
2022-07-28T16:00:24.195Z,98374.22
2022-07-28T16:03:11.464Z,98375.50
2022-07-28T16:05:59.116Z,98389.81
2022-07-28T16:08:45.228Z,98356.66
2022-07-28T16:11:31.087Z,98379.56
2022-07-28T16:14:18.050Z,98280.88
2022-07-28T16:17:04.418Z,98392.44
2022-07-28T16:19:51.229Z,98393.78
2022-07-28T16:22:38.441Z,98399.41
2022-07-28T16:25:24.523Z,98409.19
2022-07-28T16:28:10.645Z,98382.09
2022-07-28T16:30:56.222Z,98354.66
2022-07-28T16:33:41.875Z,98348.13
2022-07-28T16:36:27.175Z,98389.16
2022-07-28T16:39:12.837Z,98358.75
2022-07-28T16:41:58.693Z,98363.03
2022-07-28T16:44:44.923Z,98375.31
2022-07-28T16:47:31.135Z,98347.78
2022-07-28T16:50:18.249Z,98384.53
2022-07-28T16:53:06.728Z,98269.09
2022-07-28T16:55:52.766Z,98385.72
2022-07-28T16:58:41.391Z,98402.63
2022-07-28T17:01:27.499Z,98364.41
2022-07-28T17:04:13.806Z,98406.63
2022-07-28T17:07:00.028Z,98277.00
2022-07-28T17:09:45.503Z,98312.97
2022-07-28T17:12:30.950Z,98354.66
2022-07-28T17:15:20.071Z,98406.28
2022-07-28T17:18:07.931Z,98384.78
2022-07-28T17:20:54.004Z,98403.38
2022-07-28T17:23:39.984Z,98270.63
2022-07-28T17:29:31.379Z,98390.38
2022-07-28T17:32:17.253Z,98290.81
2022-07-28T17:35:03.744Z,98400.34
2022-07-28T17:37:49.251Z,98355.31
2022-07-28T17:40:35.121Z,98388.97
2022-07-28T17:43:23.692Z,98380.31
2022-07-28T17:46:11.409Z,98326.31
2022-07-28T17:48:59.051Z,98381.47
2022-07-28T17:51:45.179Z,98415.88
2022-07-28T17:54:50.874Z,98424.91
2022-07-28T17:57:37.867Z,98407.34
2022-07-28T18:00:26.200Z,98421.63
2022-07-28T18:03:12.359Z,98423.59
2022-07-28T18:05:58.856Z,98435.59
2022-07-28T18:08:45.382Z,98439.94
2022-07-28T18:11:31.697Z,98434.16
2022-07-28T18:14:17.929Z,98347.59
2022-07-28T18:17:04.105Z,98444.22
2022-07-28T18:19:49.911Z,98446.91
2022-07-28T18:22:35.905Z,98418.56
2022-07-28T18:25:21.578Z,98450.94
2022-07-28T18:28:07.733Z,98340.81
2022-07-28T18:30:53.830Z,98344.78
2022-07-28T18:33:40.567Z,98462.91
2022-07-28T18:36:26.251Z,98469.03
2022-07-28T18:39:12.477Z,98439.16
2022-07-28T18:41:58.190Z,98485.06
2022-07-28T18:44:43.675Z,98401.47
2022-07-28T18:47:29.857Z,98456.25
2022-07-28T18:50:27.867Z,98494.91
2022-07-28T18:53:17.007Z,98483.59
2022-07-28T18:56:02.388Z,98489.06
2022-07-28T18:58:51.729Z,98327.13
2022-07-28T19:01:38.046Z,98482.97
2022-07-28T19:04:23.731Z,98472.72
2022-07-28T19:07:09.451Z,98487.97
2022-07-28T19:09:55.365Z,98425.34
2022-07-28T19:12:41.282Z,98486.53
2022-07-28T19:15:27.352Z,98472.09
2022-07-28T19:18:13.380Z,98475.19
2022-07-28T19:20:58.943Z,98357.84
2022-07-28T19:23:44.464Z,98287.72
2022-07-28T19:26:29.954Z,98482.31
2022-07-28T19:29:15.716Z,98495.47
2022-07-28T19:32:06.236Z,98488.25
2022-07-28T19:34:52.091Z,98440.53
2022-07-28T19:37:40.878Z,98455.44
2022-07-28T19:40:29.361Z,98477.53
2022-07-28T19:43:14.855Z,98476.63
2022-07-28T19:46:00.376Z,98475.84
2022-07-28T19:48:46.472Z,98480.38
2022-07-28T19:51:31.913Z,98445.84
2022-07-28T19:54:20.982Z,98425.00
2022-07-28T19:57:12.357Z,98488.66
2022-07-28T19:59:59.142Z,98482.53
2022-07-28T20:02:46.002Z,98349.91
2022-07-28T20:05:31.998Z,98509.44
2022-07-28T20:08:17.314Z,98439.06
2022-07-28T20:11:04.167Z,98494.13
2022-07-28T20:13:50.806Z,98500.34
2022-07-28T20:16:36.728Z,98518.03
2022-07-28T20:19:22.717Z,98509.06
2022-07-28T20:22:08.567Z,98509.19
2022-07-28T20:24:54.207Z,98426.41
2022-07-28T20:27:41.353Z,98452.69
2022-07-28T20:30:27.351Z,98490.69
2022-07-28T20:33:12.978Z,98510.22
2022-07-28T20:35:58.431Z,98503.88
2022-07-28T20:38:45.149Z,98457.50
2022-07-28T20:41:30.748Z,98430.44
2022-07-28T20:44:28.868Z,98503.75
2022-07-28T20:47:15.579Z,98532.94
2022-07-28T20:50:01.461Z,98516.00
2022-07-28T20:52:48.412Z,98525.03
2022-07-28T20:55:33.891Z,98483.91
2022-07-28T20:58:19.541Z,98523.91
2022-07-28T21:01:05.129Z,98430.34
2022-07-28T21:03:51.740Z,98527.00
2022-07-28T21:06:37.839Z,98518.78
2022-07-28T21:09:23.414Z,98523.31
2022-07-28T21:12:08.841Z,98523.31
2022-07-28T21:14:54.600Z,98381.00
2022-07-28T21:17:40.422Z,98380.53
2022-07-28T21:20:26.113Z,98375.72
2022-07-28T21:23:11.192Z,98377.09
2022-07-28T21:25:56.487Z,98527.19
2022-07-28T21:29:00.379Z,98521.78
2022-07-28T21:32:04.413Z,98334.00
2022-07-28T21:34:51.799Z,98530.78
2022-07-28T21:37:37.277Z,98561.50
2022-07-28T21:40:22.779Z,98434.19
2022-07-28T21:43:09.736Z,98463.78
2022-07-28T21:45:55.421Z,98383.00
2022-07-28T21:48:40.705Z,98518.84
2022-07-28T21:51:29.229Z,98540.88
2022-07-28T21:54:15.246Z,98529.44
2022-07-28T21:57:01.280Z,98550.34
2022-07-28T21:59:49.284Z,98534.53
2022-07-28T22:02:35.381Z,98537.47
2022-07-28T22:05:21.520Z,98534.16
2022-07-28T22:08:08.769Z,98537.44
2022-07-28T22:10:54.244Z,98381.22
2022-07-28T22:13:39.491Z,98538.88
2022-07-28T22:16:25.540Z,98498.34
2022-07-28T22:19:12.501Z,98523.47
2022-07-28T22:21:59.289Z,98394.31
2022-07-28T22:24:45.778Z,98545.63
2022-07-28T22:27:31.475Z,98555.78
2022-07-28T22:30:16.805Z,98546.69
2022-07-28T22:33:02.551Z,98448.66
2022-07-28T22:35:48.087Z,98548.28
2022-07-28T22:38:34.666Z,98553.94
2022-07-28T22:41:21.062Z,98460.94
2022-07-28T22:44:07.576Z,98403.38
2022-07-28T22:46:53.409Z,98562.78
2022-07-28T22:49:39.384Z,98399.84
2022-07-28T22:52:30.016Z,98526.50
2022-07-28T22:55:17.290Z,98562.38
2022-07-28T22:58:05.555Z,98405.78
2022-07-28T23:00:52.374Z,98560.75
2022-07-28T23:03:38.627Z,98548.91
2022-07-28T23:06:24.122Z,98545.56
2022-07-28T23:09:09.521Z,98385.28
2022-07-28T23:11:55.738Z,98523.63
2022-07-28T23:14:42.033Z,98388.63
2022-07-28T23:17:28.235Z,98555.75
2022-07-28T23:20:14.185Z,98553.25
2022-07-28T23:22:59.616Z,98552.31
2022-07-28T23:25:45.793Z,98541.56
2022-07-28T23:28:31.526Z,98379.09
2022-07-28T23:31:16.899Z,98540.69
2022-07-28T23:34:02.343Z,98545.63
2022-07-28T23:36:48.091Z,98511.91
2022-07-28T23:39:33.537Z,98532.53
2022-07-28T23:42:19.064Z,98412.22
2022-07-28T23:45:04.678Z,98547.94
2022-07-28T23:47:52.912Z,98419.31
2022-07-28T23:50:42.236Z,98516.44
2022-07-28T23:53:27.983Z,98545.16
2022-07-28T23:56:14.140Z,98395.31
2022-07-28T23:59:00.922Z,98557.53
